メインページ
METAR-TAF:

METAR-TAF

空港 :

チタ, ロシア

カダラ空港

緯度: 52-05N, 経度: 113-29E, 海抜: 685m

現時点の気象観測

当レポートは17分前の01:00(UTC)に作成
東/北東の風 6kt、北/北東からの間で変化する
気温 8°C
湿度 76%
気圧 1013 hPa
視程10km以上
高度4300ftの雲は散在している, 積乱雲.

METAR: UIAA 230100Z 06003MPS 020V090 9999 SCT043CB 08/04 Q1013 R29/CLRD70 NOSIG RMK QFE701

時間: 10:17 (01:17 UTC)

予報

当レポートは2時間17分前の23:00(UTC)に作成
予報は23日の 00時(UTC)から 23日の 24時(UTC)まで有効
西/北西の風 6kt、最大17ktの突風を伴う
視程10km以上
高度3000ftの千切れ雲あり, 積乱雲.
23日の 00時(UTC)から 23日の 12時(UTC)まで一時的に
視程: 2900m
弱いにわか雨

TAF: UIAA 222300Z 2300/2324 29003G09MPS 9999 BKN030CB TEMPO 2300/2312 2900 -SHRA

4,000以上の空港の気象観測と天気予報(METAR報とTAF報)

利用可能な観測所は地図上に黄色い丸と赤い丸で示す。

丸の上にカーソルを重ねると観測所名を参照できる。

次にクリックすると気象観測と天気予報を参照できる。

マップの切り替え:黒色「×」印の緑ボタンをクリックして拡大、「-」印の緑ボタンをクリックして縮小、緑色の三角印をクリックして隣りの地図に切り替え


METAR-TAF: